sensor_id;sensor_type;location;lat;lon;timestamp;pressure;altitude;pressure_sealevel;temperature;humidity
75219;BME280;63801;49.414;19.474;2024-01-25T00:00:35;93740.22;;;3.86;84.87
75219;BME280;63801;49.414;19.474;2024-01-25T00:02:35;93741.31;;;3.85;84.82
75219;BME280;63801;49.414;19.474;2024-01-25T00:04:36;93736.59;;;3.82;84.60
75219;BME280;63801;49.414;19.474;2024-01-25T00:06:36;93726.06;;;3.77;84.26
75219;BME280;63801;49.414;19.474;2024-01-25T00:08:36;93725.47;;;3.80;84.67
75219;BME280;63801;49.414;19.474;2024-01-25T00:10:37;93722.31;;;3.78;84.65
75219;BME280;63801;49.414;19.474;2024-01-25T00:12:37;93716.47;;;3.76;84.68
75219;BME280;63801;49.414;19.474;2024-01-25T00:14:37;93718.19;;;3.72;84.62
75219;BME280;63801;49.414;19.474;2024-01-25T00:16:42;93723.53;;;3.72;84.56
75219;BME280;63801;49.414;19.474;2024-01-25T00:18:42;93717.72;;;3.70;84.61
75219;BME280;63801;49.414;19.474;2024-01-25T00:20:43;93719.91;;;3.68;84.48
75219;BME280;63801;49.414;19.474;2024-01-25T00:22:43;93722.69;;;3.63;84.57
75219;BME280;63801;49.414;19.474;2024-01-25T00:24:43;93722.69;;;3.63;84.62
75219;BME280;63801;49.414;19.474;2024-01-25T00:26:44;93726.47;;;3.62;84.50
75219;BME280;63801;49.414;19.474;2024-01-25T00:28:44;93717.97;;;3.60;84.55
75219;BME280;63801;49.414;19.474;2024-01-25T00:30:44;93719.56;;;3.61;84.49
75219;BME280;63801;49.414;19.474;2024-01-25T00:32:45;93728.63;;;3.60;84.71
75219;BME280;63801;49.414;19.474;2024-01-25T00:34:45;93721.72;;;3.59;84.47
75219;BME280;63801;49.414;19.474;2024-01-25T00:36:46;93720.94;;;3.58;84.48
75219;BME280;63801;49.414;19.474;2024-01-25T00:38:47;93722.06;;;3.57;84.61
75219;BME280;63801;49.414;19.474;2024-01-25T00:40:47;93718.72;;;3.52;84.59
75219;BME280;63801;49.414;19.474;2024-01-25T00:42:48;93730.34;;;3.56;84.47
75219;BME280;63801;49.414;19.474;2024-01-25T00:44:55;93718.59;;;3.57;84.51
75219;BME280;63801;49.414;19.474;2024-01-25T00:46:55;93709.94;;;3.51;84.37
75219;BME280;63801;49.414;19.474;2024-01-25T00:48:56;93720.66;;;3.60;84.28
75219;BME280;63801;49.414;19.474;2024-01-25T00:50:56;93727.84;;;3.59;84.41
75219;BME280;63801;49.414;19.474;2024-01-25T00:52:57;93715.16;;;3.56;84.46
75219;BME280;63801;49.414;19.474;2024-01-25T00:54:58;93728.63;;;3.60;84.39
75219;BME280;63801;49.414;19.474;2024-01-25T00:56:59;93718.91;;;3.55;84.06
75219;BME280;63801;49.414;19.474;2024-01-25T00:59:02;93720.66;;;3.60;84.37
75219;BME280;63801;49.414;19.474;2024-01-25T01:01:03;93714.47;;;3.51;84.28
75219;BME280;63801;49.414;19.474;2024-01-25T01:03:04;93723.59;;;3.58;84.03
75219;BME280;63801;49.414;19.474;2024-01-25T01:05:06;93727.84;;;3.59;84.19
75219;BME280;63801;49.414;19.474;2024-01-25T01:07:07;93715.31;;;3.60;83.98
75219;BME280;63801;49.414;19.474;2024-01-25T01:09:07;93705.56;;;3.55;83.97
75219;BME280;63801;49.414;19.474;2024-01-25T01:11:08;93711.34;;;3.49;84.07
75219;BME280;63801;49.414;19.474;2024-01-25T01:13:08;93729.94;;;3.63;84.00
75219;BME280;63801;49.414;19.474;2024-01-25T01:15:08;93742.47;;;3.62;83.94
75219;BME280;63801;49.414;19.474;2024-01-25T01:17:09;93729.88;;;3.54;84.01
75219;BME280;63801;49.414;19.474;2024-01-25T01:19:09;93737.13;;;3.62;83.84
75219;BME280;63801;49.414;19.474;2024-01-25T01:21:09;93732.59;;;3.63;83.81
75219;BME280;63801;49.414;19.474;2024-01-25T01:23:10;93734.47;;;3.62;83.60
75219;BME280;63801;49.414;19.474;2024-01-25T01:25:10;93739.00;;;3.61;83.40
75219;BME280;63801;49.414;19.474;2024-01-25T01:27:10;93735.22;;;3.54;83.49
75219;BME280;63801;49.414;19.474;2024-01-25T01:29:11;93735.38;;;3.57;83.43
75219;BME280;63801;49.414;19.474;2024-01-25T01:31:11;93709.16;;;3.51;83.27
75219;BME280;63801;49.414;19.474;2024-01-25T01:33:11;93700.03;;;3.43;83.41
75219;BME280;63801;49.414;19.474;2024-01-25T01:35:12;93717.25;;;3.46;83.43
75219;BME280;63801;49.414;19.474;2024-01-25T01:37:12;93717.94;;;3.51;83.53
75219;BME280;63801;49.414;19.474;2024-01-25T01:39:13;93715.88;;;3.48;83.20
75219;BME280;63801;49.414;19.474;2024-01-25T01:41:13;93705.22;;;3.48;83.32
75219;BME280;63801;49.414;19.474;2024-01-25T01:43:20;93716.06;;;3.52;83.23
75219;BME280;63801;49.414;19.474;2024-01-25T01:45:20;93711.50;;;3.52;83.48
75219;BME280;63801;49.414;19.474;2024-01-25T01:47:21;93712.31;;;3.53;83.45
75219;BME280;63801;49.414;19.474;2024-01-25T01:49:21;93703.53;;;3.52;83.59
75219;BME280;63801;49.414;19.474;2024-01-25T01:51:22;93713.09;;;3.53;83.42
75219;BME280;63801;49.414;19.474;2024-01-25T01:53:22;93718.09;;;3.55;83.35
75219;BME280;63801;49.414;19.474;2024-01-25T01:55:23;93707.44;;;3.55;83.14
75219;BME280;63801;49.414;19.474;2024-01-25T01:57:23;93703.81;;;3.51;83.30
75219;BME280;63801;49.414;19.474;2024-01-25T01:59:24;93703.69;;;3.56;83.15
75219;BME280;63801;49.414;19.474;2024-01-25T02:01:25;93712.47;;;3.56;82.90
75219;BME280;63801;49.414;19.474;2024-01-25T02:03:26;93711.50;;;3.52;82.83
75219;BME280;63801;49.414;19.474;2024-01-25T02:05:26;93703.81;;;3.51;83.08
75219;BME280;63801;49.414;19.474;2024-01-25T02:07:27;93721.56;;;3.55;82.74
75219;BME280;63801;49.414;19.474;2024-01-25T02:09:27;93713.28;;;3.57;82.74
75219;BME280;63801;49.414;19.474;2024-01-25T02:11:29;93705.88;;;3.54;82.91
75219;BME280;63801;49.414;19.474;2024-01-25T02:13:29;93717.19;;;3.59;82.49
75219;BME280;63801;49.414;19.474;2024-01-25T02:15:29;93730.06;;;3.57;82.31
75219;BME280;63801;49.414;19.474;2024-01-25T02:17:30;93732.03;;;3.52;82.44
75219;BME280;63801;49.414;19.474;2024-01-25T02:19:30;93719.72;;;3.65;82.04
75219;BME280;63801;49.414;19.474;2024-01-25T02:21:31;93724.44;;;3.68;81.83
75219;BME280;63801;49.414;19.474;2024-01-25T02:23:31;93716.78;;;3.66;81.72
75219;BME280;63801;49.414;19.474;2024-01-25T02:25:31;93716.16;;;3.69;81.86
75219;BME280;63801;49.414;19.474;2024-01-25T02:27:32;93720.28;;;3.75;81.13
75219;BME280;63801;49.414;19.474;2024-01-25T02:29:33;93725.16;;;3.82;81.78
75219;BME280;63801;49.414;19.474;2024-01-25T02:31:33;93729.09;;;3.84;81.67
75219;BME280;63801;49.414;19.474;2024-01-25T02:33:34;93707.91;;;3.79;81.14
75219;BME280;63801;49.414;19.474;2024-01-25T02:35:34;93719.97;;;3.85;81.29
75219;BME280;63801;49.414;19.474;2024-01-25T02:37:35;93711.06;;;3.90;80.89
75219;BME280;63801;49.414;19.474;2024-01-25T02:39:35;93716.59;;;3.93;80.82
75219;BME280;63801;49.414;19.474;2024-01-25T02:41:35;93697.44;;;3.91;80.86
75219;BME280;63801;49.414;19.474;2024-01-25T02:43:36;93703.88;;;3.99;80.87
75219;BME280;63801;49.414;19.474;2024-01-25T02:45:36;93709.72;;;4.01;80.59
75219;BME280;63801;49.414;19.474;2024-01-25T02:47:36;93710.00;;;3.99;80.75
75219;BME280;63801;49.414;19.474;2024-01-25T02:49:37;93710.97;;;4.03;80.06
75219;BME280;63801;49.414;19.474;2024-01-25T02:51:37;93707.22;;;4.04;80.08
75219;BME280;63801;49.414;19.474;2024-01-25T02:53:37;93720.72;;;4.08;79.68
75219;BME280;63801;49.414;19.474;2024-01-25T02:55:38;93705.63;;;4.03;79.71
75219;BME280;63801;49.414;19.474;2024-01-25T02:57:38;93712.13;;;4.11;79.32
75219;BME280;63801;49.414;19.474;2024-01-25T02:59:38;93708.78;;;4.05;79.60
75219;BME280;63801;49.414;19.474;2024-01-25T03:01:40;93716.16;;;4.08;79.06
75219;BME280;63801;49.414;19.474;2024-01-25T03:03:41;93706.59;;;4.07;79.48
75219;BME280;63801;49.414;19.474;2024-01-25T03:05:42;93719.16;;;4.07;79.30
75219;BME280;63801;49.414;19.474;2024-01-25T03:07:42;93701.88;;;4.04;79.08
75219;BME280;63801;49.414;19.474;2024-01-25T03:09:42;93702.66;;;4.05;79.54
75219;BME280;63801;49.414;19.474;2024-01-25T03:11:43;93699.97;;;3.96;78.39
75219;BME280;63801;49.414;19.474;2024-01-25T03:13:43;93712.84;;;4.03;78.92
75219;BME280;63801;49.414;19.474;2024-01-25T03:15:43;93694.00;;;3.99;78.52
75219;BME280;63801;49.414;19.474;2024-01-25T03:17:44;93712.69;;;3.99;78.21
75219;BME280;63801;49.414;19.474;2024-01-25T03:19:44;93715.81;;;3.93;78.39
75219;BME280;63801;49.414;19.474;2024-01-25T03:21:44;93707.81;;;3.93;78.30
75219;BME280;63801;49.414;19.474;2024-01-25T03:23:45;93713.44;;;3.91;78.31
75219;BME280;63801;49.414;19.474;2024-01-25T03:25:45;93699.44;;;3.86;78.35
75219;BME280;63801;49.414;19.474;2024-01-25T03:27:45;93707.28;;;3.82;78.58
75219;BME280;63801;49.414;19.474;2024-01-25T03:29:46;93702.84;;;3.78;78.56
75219;BME280;63801;49.414;19.474;2024-01-25T03:31:47;93710.69;;;3.74;78.97
75219;BME280;63801;49.414;19.474;2024-01-25T03:33:47;93719.47;;;3.75;78.92
75219;BME280;63801;49.414;19.474;2024-01-25T03:35:47;93696.88;;;3.72;79.09
75219;BME280;63801;49.414;19.474;2024-01-25T03:37:48;93711.78;;;3.73;79.00
75219;BME280;63801;49.414;19.474;2024-01-25T03:39:48;93679.44;;;3.66;78.92
75219;BME280;63801;49.414;19.474;2024-01-25T03:41:49;93701.38;;;3.63;78.96
75219;BME280;63801;49.414;19.474;2024-01-25T03:43:50;93709.44;;;3.72;79.18
75219;BME280;63801;49.414;19.474;2024-01-25T03:45:51;93708.31;;;3.73;78.90
75219;BME280;63801;49.414;19.474;2024-01-25T03:47:51;93709.44;;;3.72;78.65
75219;BME280;63801;49.414;19.474;2024-01-25T03:49:51;93684.47;;;3.68;78.87
75219;BME280;63801;49.414;19.474;2024-01-25T03:51:51;93680.88;;;3.72;78.15
75219;BME280;63801;49.414;19.474;2024-01-25T03:53:52;93703.16;;;3.76;78.38
75219;BME280;63801;49.414;19.474;2024-01-25T03:55:52;93702.06;;;3.77;77.99
75219;BME280;63801;49.414;19.474;2024-01-25T03:57:53;93705.56;;;3.86;78.33
75219;BME280;63801;49.414;19.474;2024-01-25T03:59:53;93683.94;;;3.88;77.72
75219;BME280;63801;49.414;19.474;2024-01-25T04:01:53;93695.22;;;3.85;77.32
75219;BME280;63801;49.414;19.474;2024-01-25T04:03:54;93707.63;;;3.89;77.82
75219;BME280;63801;49.414;19.474;2024-01-25T04:05:54;93701.06;;;3.95;77.55
75219;BME280;63801;49.414;19.474;2024-01-25T04:07:54;93721.75;;;3.98;77.42
75219;BME280;63801;49.414;19.474;2024-01-25T04:09:55;93712.69;;;3.99;77.73
75219;BME280;63801;49.414;19.474;2024-01-25T04:11:55;93705.31;;;3.96;77.26
75219;BME280;63801;49.414;19.474;2024-01-25T04:13:56;93705.63;;;4.03;77.18
75219;BME280;63801;49.414;19.474;2024-01-25T04:15:56;93713.63;;;4.03;77.31
75219;BME280;63801;49.414;19.474;2024-01-25T04:17:56;93699.97;;;3.96;77.46
75219;BME280;63801;49.414;19.474;2024-01-25T04:19:57;93707.22;;;4.04;77.39
75219;BME280;63801;49.414;19.474;2024-01-25T04:21:57;93693.06;;;3.95;76.92
75219;BME280;63801;49.414;19.474;2024-01-25T04:23:57;93689.00;;;3.98;77.03
75219;BME280;63801;49.414;19.474;2024-01-25T04:25:58;93672.22;;;3.97;77.26
75219;BME280;63801;49.414;19.474;2024-01-25T04:27:58;93660.59;;;3.93;77.26
75219;BME280;63801;49.414;19.474;2024-01-25T04:29:58;93681.63;;;4.03;76.43
75219;BME280;63801;49.414;19.474;2024-01-25T04:31:59;93688.84;;;4.03;76.00
75219;BME280;63801;49.414;19.474;2024-01-25T04:33:59;93686.97;;;4.03;76.51
75219;BME280;63801;49.414;19.474;2024-01-25T04:36:00;93674.38;;;3.95;75.87
75219;BME280;63801;49.414;19.474;2024-01-25T04:38:00;93685.72;;;4.01;75.49
75219;BME280;63801;49.414;19.474;2024-01-25T04:40:00;93684.91;;;4.00;75.80
75219;BME280;63801;49.414;19.474;2024-01-25T04:42:01;93686.50;;;4.01;75.03
75219;BME280;63801;49.414;19.474;2024-01-25T04:44:01;93666.75;;;4.02;75.32
75219;BME280;63801;49.414;19.474;2024-01-25T04:46:02;93676.63;;;4.02;74.66
75219;BME280;63801;49.414;19.474;2024-01-25T04:48:03;93666.22;;;3.92;74.90
75219;BME280;63801;49.414;19.474;2024-01-25T04:50:04;93683.22;;;4.04;74.67
75219;BME280;63801;49.414;19.474;2024-01-25T04:52:04;93677.09;;;4.04;74.68
75219;BME280;63801;49.414;19.474;2024-01-25T04:54:05;93687.44;;;4.05;74.50
75219;BME280;63801;49.414;19.474;2024-01-25T04:56:07;93690.75;;;4.02;74.62
75219;BME280;63801;49.414;19.474;2024-01-25T04:58:08;93707.03;;;4.01;74.71
75219;BME280;63801;49.414;19.474;2024-01-25T05:00:08;93699.19;;;3.96;74.69
75219;BME280;63801;49.414;19.474;2024-01-25T05:02:09;93685.81;;;3.87;74.96
75219;BME280;63801;49.414;19.474;2024-01-25T05:04:09;93711.44;;;3.97;74.89
75219;BME280;63801;49.414;19.474;2024-01-25T05:06:10;93700.13;;;4.00;74.73
75219;BME280;63801;49.414;19.474;2024-01-25T05:08:10;93715.34;;;3.99;74.90
75219;BME280;63801;49.414;19.474;2024-01-25T05:10:10;93713.75;;;3.98;74.75
75219;BME280;63801;49.414;19.474;2024-01-25T05:12:11;93711.72;;;3.95;74.92
75219;BME280;63801;49.414;19.474;2024-01-25T05:14:11;93702.47;;;3.93;74.89
75219;BME280;63801;49.414;19.474;2024-01-25T05:16:11;93718.31;;;3.89;74.87
75219;BME280;63801;49.414;19.474;2024-01-25T05:18:12;93728.00;;;3.94;74.79
75219;BME280;63801;49.414;19.474;2024-01-25T05:20:12;93718.31;;;3.89;74.90
75219;BME280;63801;49.414;19.474;2024-01-25T05:22:15;93722.53;;;3.90;74.98
75219;BME280;63801;49.414;19.474;2024-01-25T05:24:16;93702.56;;;3.79;75.10
75219;BME280;63801;49.414;19.474;2024-01-25T05:26:17;93697.69;;;3.81;74.87
75219;BME280;63801;49.414;19.474;2024-01-25T05:28:17;93692.31;;;3.73;75.23
75219;BME280;63801;49.414;19.474;2024-01-25T05:30:18;93715.22;;;3.74;75.06
75219;BME280;63801;49.414;19.474;2024-01-25T05:32:18;93712.09;;;3.72;75.27
75219;BME280;63801;49.414;19.474;2024-01-25T05:34:18;93712.41;;;3.70;75.34
75219;BME280;63801;49.414;19.474;2024-01-25T05:36:19;93705.78;;;3.68;75.38
75219;BME280;63801;49.414;19.474;2024-01-25T05:38:20;93702.91;;;3.55;76.01
75219;BME280;63801;49.414;19.474;2024-01-25T05:40:20;93694.69;;;3.43;75.96
75219;BME280;63801;49.414;19.474;2024-01-25T05:42:20;93689.31;;;3.35;76.32
75219;BME280;63801;49.414;19.474;2024-01-25T05:44:21;93707.22;;;3.43;75.85
75219;BME280;63801;49.414;19.474;2024-01-25T05:46:21;93709.59;;;3.44;75.92
75219;BME280;63801;49.414;19.474;2024-01-25T05:48:22;93694.69;;;3.43;76.30
75219;BME280;63801;49.414;19.474;2024-01-25T05:50:22;93689.31;;;3.35;76.63
75219;BME280;63801;49.414;19.474;2024-01-25T05:52:23;93690.78;;;3.19;77.03
75219;BME280;63801;49.414;19.474;2024-01-25T05:54:24;93687.00;;;3.20;77.19
75219;BME280;63801;49.414;19.474;2024-01-25T05:56:24;93696.22;;;3.13;77.61
75219;BME280;63801;49.414;19.474;2024-01-25T05:58:25;93696.47;;;3.03;77.57
75219;BME280;63801;49.414;19.474;2024-01-25T06:00:25;93726.72;;;3.07;77.61
75219;BME280;63801;49.414;19.474;2024-01-25T06:02:26;93716.06;;;3.07;77.88
75219;BME280;63801;49.414;19.474;2024-01-25T06:04:26;93724.34;;;3.06;77.96
75219;BME280;63801;49.414;19.474;2024-01-25T06:06:26;93731.88;;;3.04;78.01
75219;BME280;63801;49.414;19.474;2024-01-25T06:08:27;93732.16;;;3.02;77.95
75219;BME280;63801;49.414;19.474;2024-01-25T06:10:30;93741.72;;;3.03;78.18
75219;BME280;63801;49.414;19.474;2024-01-25T06:12:30;93708.00;;;2.99;78.04
75219;BME280;63801;49.414;19.474;2024-01-25T06:14:30;93711.94;;;3.01;78.67
75219;BME280;63801;49.414;19.474;2024-01-25T06:16:31;93722.13;;;2.99;78.45
75219;BME280;63801;49.414;19.474;2024-01-25T06:18:31;93724.09;;;2.94;78.78
75219;BME280;63801;49.414;19.474;2024-01-25T06:20:32;93715.75;;;2.87;79.34
75219;BME280;63801;49.414;19.474;2024-01-25T06:22:32;93711.91;;;2.79;79.23
75219;BME280;63801;49.414;19.474;2024-01-25T06:24:33;93678.56;;;2.59;79.46
75219;BME280;63801;49.414;19.474;2024-01-25T06:26:33;93707.69;;;2.78;79.87
75219;BME280;63801;49.414;19.474;2024-01-25T06:28:33;93703.56;;;2.72;79.63
75219;BME280;63801;49.414;19.474;2024-01-25T06:30:34;93700.84;;;2.63;80.56
75219;BME280;63801;49.414;19.474;2024-01-25T06:32:34;93721.13;;;2.73;79.66
75219;BME280;63801;49.414;19.474;2024-01-25T06:34:34;93720.63;;;2.71;79.95
75219;BME280;63801;49.414;19.474;2024-01-25T06:36:35;93718.47;;;2.73;80.07
75219;BME280;63801;49.414;19.474;2024-01-25T06:38:35;93726.25;;;2.69;80.34
75219;BME280;63801;49.414;19.474;2024-01-25T06:40:36;93714.63;;;2.65;80.64
75219;BME280;63801;49.414;19.474;2024-01-25T06:42:36;93702.59;;;2.68;80.56
75219;BME280;63801;49.414;19.474;2024-01-25T06:44:36;93696.66;;;2.71;80.59
75219;BME280;63801;49.414;19.474;2024-01-25T06:46:37;93703.38;;;2.68;80.31
75219;BME280;63801;49.414;19.474;2024-01-25T06:48:38;93697.16;;;2.73;80.33
75219;BME280;63801;49.414;19.474;2024-01-25T06:50:38;93698.44;;;2.76;80.30
75219;BME280;63801;49.414;19.474;2024-01-25T06:52:38;93695.47;;;2.77;80.21
75219;BME280;63801;49.414;19.474;2024-01-25T06:54:39;93697.06;;;2.78;79.87
75219;BME280;63801;49.414;19.474;2024-01-25T06:56:39;93689.34;;;2.77;80.17
75219;BME280;63801;49.414;19.474;2024-01-25T06:58:39;93691.72;;;2.78;80.22
75219;BME280;63801;49.414;19.474;2024-01-25T07:00:40;93698.59;;;2.79;80.17
75219;BME280;63801;49.414;19.474;2024-01-25T07:02:42;93683.53;;;2.75;80.38
75219;BME280;63801;49.414;19.474;2024-01-25T07:04:42;93694.28;;;2.83;80.08
75219;BME280;63801;49.414;19.474;2024-01-25T07:06:43;93682.53;;;2.84;80.22
75219;BME280;63801;49.414;19.474;2024-01-25T07:08:43;93670.31;;;2.83;80.41
75219;BME280;63801;49.414;19.474;2024-01-25T07:10:44;93652.88;;;2.77;80.49
75219;BME280;63801;49.414;19.474;2024-01-25T07:12:45;93685.78;;;2.81;80.47
75219;BME280;63801;49.414;19.474;2024-01-25T07:14:45;93683.13;;;2.81;80.66
75219;BME280;63801;49.414;19.474;2024-01-25T07:16:45;93678.91;;;2.80;80.69
75219;BME280;63801;49.414;19.474;2024-01-25T07:18:46;93669.94;;;2.76;80.41
75219;BME280;63801;49.414;19.474;2024-01-25T07:20:46;93692.28;;;2.89;80.53
75219;BME280;63801;49.414;19.474;2024-01-25T07:22:46;93691.38;;;2.93;80.53
75219;BME280;63801;49.414;19.474;2024-01-25T07:24:47;93681.22;;;2.95;80.47
75219;BME280;63801;49.414;19.474;2024-01-25T07:26:47;93684.97;;;2.94;80.39
75219;BME280;63801;49.414;19.474;2024-01-25T07:28:47;93687.91;;;2.93;80.29
75219;BME280;63801;49.414;19.474;2024-01-25T07:30:48;93680.91;;;2.97;80.47
75219;BME280;63801;49.414;19.474;2024-01-25T07:32:49;93680.44;;;2.95;80.39
75219;BME280;63801;49.414;19.474;2024-01-25T07:34:51;93689.09;;;3.00;80.38
75219;BME280;63801;49.414;19.474;2024-01-25T07:36:51;93685.81;;;3.03;80.16
75219;BME280;63801;49.414;19.474;2024-01-25T07:38:51;93695.38;;;3.04;79.75
75219;BME280;63801;49.414;19.474;2024-01-25T07:40:51;93699.00;;;3.08;80.27
75219;BME280;63801;49.414;19.474;2024-01-25T07:42:52;93707.97;;;3.12;80.01
75219;BME280;63801;49.414;19.474;2024-01-25T07:44:52;93686.28;;;3.05;80.11
75219;BME280;63801;49.414;19.474;2024-01-25T07:46:53;93717.22;;;3.15;80.11
75219;BME280;63801;49.414;19.474;2024-01-25T07:48:53;93727.56;;;3.16;79.55
75219;BME280;63801;49.414;19.474;2024-01-25T07:50:53;93724.13;;;3.16;80.07
75219;BME280;63801;49.414;19.474;2024-01-25T07:52:54;93718.63;;;3.12;79.94
75219;BME280;63801;49.414;19.474;2024-01-25T07:54:54;93722.13;;;3.22;79.70
75219;BME280;63801;49.414;19.474;2024-01-25T07:56:55;93731.19;;;3.21;79.77
75219;BME280;63801;49.414;19.474;2024-01-25T07:58:55;93722.84;;;3.13;79.83
75219;BME280;63801;49.414;19.474;2024-01-25T08:00:56;93728.06;;;3.19;80.25
75219;BME280;63801;49.414;19.474;2024-01-25T08:02:56;93736.72;;;3.24;80.03
75219;BME280;63801;49.414;19.474;2024-01-25T08:04:57;93746.56;;;3.24;80.12
75219;BME280;63801;49.414;19.474;2024-01-25T08:06:58;93749.22;;;3.24;79.91
75219;BME280;63801;49.414;19.474;2024-01-25T08:08:58;93739.00;;;3.17;79.99
75219;BME280;63801;49.414;19.474;2024-01-25T08:10:59;93744.06;;;3.19;80.06
75219;BME280;63801;49.414;19.474;2024-01-25T08:12:59;93744.81;;;3.19;80.15
75219;BME280;63801;49.414;19.474;2024-01-25T08:14:59;93758.81;;;3.25;79.94
75219;BME280;63801;49.414;19.474;2024-01-25T08:17:00;93758.81;;;3.25;80.31
75219;BME280;63801;49.414;19.474;2024-01-25T08:19:00;93747.78;;;3.17;79.92
75219;BME280;63801;49.414;19.474;2024-01-25T08:21:00;93751.44;;;3.22;80.14
75219;BME280;63801;49.414;19.474;2024-01-25T08:23:01;93749.50;;;3.13;80.00
75219;BME280;63801;49.414;19.474;2024-01-25T08:25:01;93751.53;;;3.16;79.92
75219;BME280;63801;49.414;19.474;2024-01-25T08:27:02;93742.88;;;3.11;80.05
75219;BME280;63801;49.414;19.474;2024-01-25T08:29:03;93754.31;;;3.11;80.03
75219;BME280;63801;49.414;19.474;2024-01-25T08:31:03;93761.63;;;3.06;80.37
75219;BME280;63801;49.414;19.474;2024-01-25T08:33:05;93749.59;;;3.08;80.36
75219;BME280;63801;49.414;19.474;2024-01-25T08:35:05;93760.84;;;3.05;80.32
75219;BME280;63801;49.414;19.474;2024-01-25T08:37:07;93752.38;;;3.03;80.17
75219;BME280;63801;49.414;19.474;2024-01-25T08:39:07;93747.06;;;3.03;80.44
75219;BME280;63801;49.414;19.474;2024-01-25T08:41:08;93754.69;;;2.96;80.38
75219;BME280;63801;49.414;19.474;2024-01-25T08:43:11;93745.59;;;2.97;80.63
75219;BME280;63801;49.414;19.474;2024-01-25T08:45:11;93748.84;;;2.94;80.47
75219;BME280;63801;49.414;19.474;2024-01-25T08:47:12;93751.00;;;2.92;80.38
75219;BME280;63801;49.414;19.474;2024-01-25T08:49:12;93750.03;;;2.88;80.33
75219;BME280;63801;49.414;19.474;2024-01-25T08:51:12;93751.16;;;2.87;80.59
75219;BME280;63801;49.414;19.474;2024-01-25T08:53:13;93755.38;;;2.88;80.50
75219;BME280;63801;49.414;19.474;2024-01-25T08:55:13;93764.16;;;2.89;80.91
75219;BME280;63801;49.414;19.474;2024-01-25T08:57:14;93744.16;;;2.78;81.27
75219;BME280;63801;49.414;19.474;2024-01-25T08:59:15;93769.56;;;2.84;80.81
75219;BME280;63801;49.414;19.474;2024-01-25T09:01:16;93769.09;;;2.82;80.77
75219;BME280;63801;49.414;19.474;2024-01-25T09:03:16;93773.03;;;2.84;81.05
75219;BME280;63801;49.414;19.474;2024-01-25T09:05:17;93749.78;;;2.76;81.17
75219;BME280;63801;49.414;19.474;2024-01-25T09:07:17;93764.78;;;2.72;81.27
75219;BME280;63801;49.414;19.474;2024-01-25T09:09:17;93772.66;;;2.77;81.07
75219;BME280;63801;49.414;19.474;2024-01-25T09:11:18;93775.13;;;2.74;81.44
75219;BME280;63801;49.414;19.474;2024-01-25T09:13:19;93771.38;;;2.75;81.57
75219;BME280;63801;49.414;19.474;2024-01-25T09:15:19;93787.72;;;2.82;81.36
75219;BME280;63801;49.414;19.474;2024-01-25T09:17:20;93797.50;;;2.86;81.37
75219;BME280;63801;49.414;19.474;2024-01-25T09:19:23;93772.84;;;2.81;81.36
75219;BME280;63801;49.414;19.474;2024-01-25T09:21:23;93794.41;;;2.93;81.15
75219;BME280;63801;49.414;19.474;2024-01-25T09:23:23;93794.63;;;2.96;81.07
75219;BME280;63801;49.414;19.474;2024-01-25T09:25:24;93796.97;;;2.98;81.11
75219;BME280;63801;49.414;19.474;2024-01-25T09:27:24;93790.09;;;2.83;81.47
75219;BME280;63801;49.414;19.474;2024-01-25T09:29:25;93801.03;;;2.95;81.07
75219;BME280;63801;49.414;19.474;2024-01-25T09:31:25;93786.22;;;2.89;81.61
75219;BME280;63801;49.414;19.474;2024-01-25T09:33:25;93793.81;;;2.96;81.26
75219;BME280;63801;49.414;19.474;2024-01-25T09:35:26;93813.25;;;2.96;81.08
75219;BME280;63801;49.414;19.474;2024-01-25T09:37:26;93820.75;;;2.94;81.18
75219;BME280;63801;49.414;19.474;2024-01-25T09:39:27;93816.59;;;2.88;81.20
75219;BME280;63801;49.414;19.474;2024-01-25T09:41:27;93825.56;;;2.92;81.11
75219;BME280;63801;49.414;19.474;2024-01-25T09:43:27;93826.66;;;2.91;81.23
75219;BME280;63801;49.414;19.474;2024-01-25T09:45:28;93832.00;;;2.91;81.35
75219;BME280;63801;49.414;19.474;2024-01-25T09:47:30;93812.16;;;2.84;81.55
75219;BME280;63801;49.414;19.474;2024-01-25T09:49:31;93810.72;;;2.78;81.44
75219;BME280;63801;49.414;19.474;2024-01-25T09:51:36;93826.38;;;2.79;81.43
75219;BME280;63801;49.414;19.474;2024-01-25T09:53:39;93817.91;;;2.77;81.45
75219;BME280;63801;49.414;19.474;2024-01-25T09:55:40;93793.69;;;2.65;81.74
75219;BME280;63801;49.414;19.474;2024-01-25T09:57:45;93803.31;;;2.75;81.92
75219;BME280;63801;49.414;19.474;2024-01-25T09:59:46;93795.56;;;2.64;81.84
75219;BME280;63801;49.414;19.474;2024-01-25T10:01:48;93805.56;;;2.81;81.92
75219;BME280;63801;49.414;19.474;2024-01-25T10:03:48;93791.47;;;2.81;81.80
75219;BME280;63801;49.414;19.474;2024-01-25T10:05:49;93809.00;;;2.95;81.44
75219;BME280;63801;49.414;19.474;2024-01-25T10:07:49;93811.56;;;3.00;81.80
75219;BME280;63801;49.414;19.474;2024-01-25T10:09:49;93806.72;;;3.02;81.75
75219;BME280;63801;49.414;19.474;2024-01-25T10:11:52;93807.69;;;3.06;81.56
75219;BME280;63801;49.414;19.474;2024-01-25T10:13:53;93812.63;;;3.13;81.73
75219;BME280;63801;49.414;19.474;2024-01-25T10:15:54;93809.94;;;3.13;81.62
75219;BME280;63801;49.414;19.474;2024-01-25T10:17:54;93809.16;;;3.12;81.25
75219;BME280;63801;49.414;19.474;2024-01-25T10:19:55;93812.81;;;3.16;81.88
75219;BME280;63801;49.414;19.474;2024-01-25T10:21:56;93807.53;;;3.25;81.65
75219;BME280;63801;49.414;19.474;2024-01-25T10:23:56;93804.28;;;3.28;81.22
75219;BME280;63801;49.414;19.474;2024-01-25T10:25:58;93803.88;;;3.35;81.66
75219;BME280;63801;49.414;19.474;2024-01-25T10:27:58;93794.47;;;3.37;81.70
75219;BME280;63801;49.414;19.474;2024-01-25T10:29:59;93793.69;;;3.37;81.71
75219;BME280;63801;49.414;19.474;2024-01-25T10:32:01;93803.75;;;3.40;81.33
75219;BME280;63801;49.414;19.474;2024-01-25T10:34:02;93798.91;;;3.42;81.30
75219;BME280;63801;49.414;19.474;2024-01-25T10:36:03;93790.44;;;3.40;81.19
75219;BME280;63801;49.414;19.474;2024-01-25T10:38:04;93774.91;;;3.42;81.00